Time;durP1;ratioP1;P1;durP2;ratioP2;P2;SDS_P1;SDS_P2;PMS_P1;PMS_P2;Temp;Humidity;BMP_temperature;BMP_pressure;BME280_temperature;BME280_humidity;BME280_pressure;Samples;Min_cycle;Max_cycle;Signal;HPM_P1;HPM_P2
2022/12/15 00:38:44;;;;;;;12.85;7.33;;;;;;;10.62;68.20;101496.36;1660638;84;21093;-50
2022/12/15 00:41:14;;;;;;;12.07;6.95;;;;;;;10.61;68.39;101502.46;1657192;85;21196;-50
2022/12/15 00:43:40;;;;;;;12.82;6.12;;;;;;;10.59;68.37;101495.11;1667044;84;21100;-50
2022/12/15 00:48:52;;;;;;;14.75;6.55;;;;;;;10.62;68.36;101492.45;1658911;84;21049;-50
2022/12/15 00:51:19;;;;;;;13.08;6.67;;;;;;;10.63;68.30;101483.79;1661421;85;21030;-50
2022/12/15 01:21:19;;;;;;;12.28;6.95;;;;;;;10.79;68.86;101415.48;1731534;80;21093;-50
2022/12/15 01:23:46;;;;;;;13.20;6.58;;;;;;;10.80;69.02;101415.45;1762651;80;21010;-50
2022/12/15 01:26:12;;;;;;;11.97;6.10;;;;;;;10.82;69.08;101408.49;1742165;80;21019;-50
2022/12/15 01:28:39;;;;;;;11.40;6.05;;;;;;;10.85;69.01;101403.27;1764940;80;21015;-50
2022/12/15 01:31:10;;;;;;;16.30;6.20;;;;;;;10.87;69.06;101401.50;1767863;80;21054;-50
2022/12/15 01:33:38;;;;;;;15.72;6.97;;;;;;;10.90;69.16;101396.23;1764187;80;21069;-50
2022/12/15 01:36:06;;;;;;;17.75;6.78;;;;;;;10.93;69.18;101396.21;1772769;80;21517;-50
2022/12/15 01:38:33;;;;;;;13.85;6.97;;;;;;;10.98;69.20;101394.42;1755499;80;21110;-51
2022/12/15 01:41:03;;;;;;;12.98;7.45;;;;;;;11.00;69.12;101401.77;1737945;80;21046;-50
2022/12/15 01:43:33;;;;;;;16.23;6.60;;;;;;;11.01;69.10;101394.80;1740198;80;21019;-50
2022/12/15 01:46:18;;;;;;;12.55;6.65;;;;;;;11.00;69.05;101386.58;1753339;80;21046;-50
2022/12/15 01:48:55;;;;;;;15.13;7.10;;;;;;;10.95;69.34;101386.64;1768832;80;21605;-50
2022/12/15 01:51:32;;;;;;;12.85;6.78;;;;;;;10.97;69.46;101384.88;1650241;85;21071;-50
2022/12/15 07:08:55;;;;;;;32.88;10.98;;;;;;;8.48;91.74;101081.32;1782125;80;21026;-59
2022/12/15 07:11:22;;;;;;;29.77;10.28;;;;;;;8.79;88.22;101078.89;1772004;80;21022;-58
2022/12/15 07:13:51;;;;;;;19.70;8.25;;;;;;;8.91;87.13;101070.56;1762755;80;21033;-58
2022/12/15 07:16:18;;;;;;;17.52;7.42;;;;;;;9.01;86.53;101075.20;1667480;84;21518;-59
2022/12/15 07:18:45;;;;;;;18.95;8.13;;;;;;;9.13;85.97;101069.88;1670101;84;21027;-59
2022/12/15 07:21:11;;;;;;;18.42;7.33;;;;;;;9.25;85.32;101070.20;1665789;85;21542;-58
2022/12/15 07:23:38;;;;;;;17.20;6.83;;;;;;;9.33;84.58;101080.93;1676116;85;21095;-58
2022/12/15 07:26:07;;;;;;;19.35;7.60;;;;;;;9.41;84.11;101085.59;1678002;84;21115;-58
2022/12/15 07:28:36;;;;;;;15.43;6.78;;;;;;;9.51;83.74;101085.91;1638944;86;21573;-58
2022/12/15 07:31:05;;;;;;;19.25;7.28;;;;;;;9.59;83.20;101074.97;1664789;85;21666;-58
2022/12/15 07:33:32;;;;;;;19.45;7.05;;;;;;;9.67;82.84;101087.42;1672317;85;21042;-59
2022/12/15 07:36:00;;;;;;;17.60;6.83;;;;;;;9.77;82.40;101069.96;1674649;84;21051;-57
2022/12/15 07:38:28;;;;;;;11.97;6.20;;;;;;;9.85;81.89;101058.58;1675091;85;21109;-57
2022/12/15 07:41:03;;;;;;;16.45;7.80;;;;;;;9.92;81.25;101066.30;1666249;84;21062;-59
2022/12/15 07:43:30;;;;;;;13.68;6.80;;;;;;;9.96;80.95;101075.77;1632866;87;21552;-59
2022/12/15 07:45:57;;;;;;;20.12;7.85;;;;;;;10.01;80.51;101071.37;1621795;87;21129;-59
2022/12/15 07:48:24;;;;;;;22.17;8.40;;;;;;;10.00;79.77;101061.41;1629423;87;21244;-59
2022/12/15 07:50:56;;;;;;;17.23;7.50;;;;;;;10.02;79.66;101069.18;1616854;87;21080;-58
2022/12/15 07:53:19;;;;;;;14.38;6.80;;;;;;;10.07;79.42;101054.39;1614467;87;21106;-58
2022/12/15 07:55:55;;;;;;;17.52;6.95;;;;;;;10.17;78.85;101046.89;1626065;87;21056;-57
2022/12/15 07:58:22;;;;;;;19.98;7.83;;;;;;;10.09;78.89;101054.79;1615732;87;21043;-56
2022/12/15 08:00:49;;;;;;;21.35;8.08;;;;;;;10.07;79.08;101037.48;1604919;88;21106;-57
2022/12/15 08:03:16;;;;;;;20.80;8.30;;;;;;;10.07;78.80;101037.48;1626922;87;22041;-57
2022/12/15 08:05:42;;;;;;;22.22;8.18;;;;;;;10.06;78.77;101032.72;1630748;87;21091;-58
2022/12/15 08:08:10;;;;;;;19.85;7.60;;;;;;;10.06;78.82;101022.75;1644525;87;21073;-57
2022/12/15 08:10:38;;;;;;;17.60;6.62;;;;;;;10.07;78.77;101025.35;1637084;87;21054;-57
2022/12/15 08:13:05;;;;;;;17.20;7.20;;;;;;;10.07;78.56;101019.29;1632690;87;21051;-57
2022/12/15 08:15:38;;;;;;;16.32;7.83;;;;;;;10.08;78.46;101018.39;1623637;87;21077;-58
2022/12/15 08:18:06;;;;;;;19.98;8.20;;;;;;;10.10;78.58;101008.86;1675674;84;21065;-56
2022/12/15 08:20:33;;;;;;;20.43;7.47;;;;;;;10.13;78.42;101004.92;1674066;84;21125;-56
2022/12/15 08:23:00;;;;;;;15.78;7.53;;;;;;;10.14;78.44;101003.59;1670632;84;21060;-56
2022/12/15 08:25:28;;;;;;;21.25;8.38;;;;;;;10.16;78.50;100998.39;1675140;84;21077;-56
2022/12/15 08:27:55;;;;;;;19.05;7.67;;;;;;;10.18;78.37;100990.95;1695322;83;21513;-56
2022/12/15 08:30:23;;;;;;;16.15;7.50;;;;;;;10.18;78.10;100992.72;1709667;83;21101;-56
2022/12/15 08:32:50;;;;;;;21.37;8.05;;;;;;;10.16;78.03;100996.63;1709688;83;21042;-56
2022/12/15 08:35:17;;;;;;;24.12;8.50;;;;;;;10.16;78.17;100977.59;1720937;83;21189;-56
2022/12/15 08:37:44;;;;;;;19.02;7.20;;;;;;;10.16;78.18;100972.39;1706780;83;21046;-57
2022/12/15 08:40:11;;;;;;;28.75;9.33;;;;;;;10.16;78.00;100969.78;1729012;80;21045;-56
2022/12/15 08:42:39;;;;;;;23.85;8.48;;;;;;;10.16;78.00;100972.39;1765821;80;21085;-56
2022/12/15 08:45:07;;;;;;;18.17;8.20;;;;;;;10.17;78.02;100971.48;1762068;80;21526;-56
2022/12/15 08:47:34;;;;;;;22.82;7.95;;;;;;;10.17;78.03;100972.34;1762658;80;21050;-56
2022/12/15 08:50:00;;;;;;;22.02;8.35;;;;;;;10.18;77.97;100962.34;1760313;80;21514;-56
2022/12/15 08:52:27;;;;;;;16.85;6.80;;;;;;;10.21;77.75;100963.61;1765940;80;21043;-57
2022/12/15 08:54:54;;;;;;;20.52;8.98;;;;;;;10.24;77.56;100973.11;1753241;80;21171;-56
2022/12/15 08:57:20;;;;;;;26.05;8.38;;;;;;;10.24;77.63;100970.05;1753040;80;21062;-56
2022/12/15 08:59:47;;;;;;;21.48;9.05;;;;;;;10.26;77.61;100973.94;1755829;80;21042;-56
2022/12/15 09:02:14;;;;;;;33.13;8.30;;;;;;;10.29;77.64;100963.47;1759429;81;21023;-56
2022/12/15 09:04:40;;;;;;;25.52;8.40;;;;;;;10.32;77.73;100942.63;1773131;80;21069;-56
2022/12/15 09:07:07;;;;;;;18.35;7.65;;;;;;;10.36;77.91;100927.38;1766945;80;21520;-56
2022/12/15 09:09:34;;;;;;;19.17;7.53;;;;;;;10.39;77.96;100915.17;1759585;80;20999;-56
2022/12/15 09:12:00;;;;;;;20.75;8.20;;;;;;;10.44;77.92;100903.38;1757887;80;21050;-59
2022/12/15 09:14:27;;;;;;;25.25;8.43;;;;;;;10.46;77.87;100899.00;1766098;80;21051;-57
2022/12/15 09:16:54;;;;;;;17.42;7.95;;;;;;;10.45;77.87;100889.03;1759739;80;21014;-62
2022/12/15 09:19:20;;;;;;;26.50;7.85;;;;;;;10.46;77.81;100888.59;1756287;80;21469;-60
2022/12/15 09:21:48;;;;;;;19.05;7.45;;;;;;;10.45;77.84;100866.06;1761646;80;21030;-59
2022/12/15 09:24:14;;;;;;;23.52;8.25;;;;;;;10.44;77.97;100870.86;1764750;80;21462;-59
2022/12/15 09:26:41;;;;;;;25.55;8.75;;;;;;;10.44;78.10;100891.23;1766538;80;21086;-60
2022/12/15 09:29:12;;;;;;;21.93;8.25;;;;;;;10.46;78.00;100917.22;1741769;81;21057;-59
2022/12/15 09:31:38;;;;;;;22.15;7.87;;;;;;;10.44;78.12;100926.80;1693635;83;21039;-60
2022/12/15 09:34:05;;;;;;;25.70;8.73;;;;;;;10.45;78.33;100938.90;1697113;83;21528;-59
2022/12/15 09:36:32;;;;;;;14.55;6.10;;;;;;;10.45;78.50;100911.15;1732573;81;21055;-60
2022/12/15 09:39:00;;;;;;;17.87;6.83;;;;;;;10.49;78.63;100913.23;1719694;83;21035;-60
2022/12/15 09:41:34;;;;;;;22.30;7.85;;;;;;;10.51;78.67;100941.38;1709724;82;21050;-58
2022/12/15 09:44:16;;;;;;;19.62;7.15;;;;;;;10.56;78.77;100931.77;1681695;84;21049;-58
2022/12/15 09:47:20;;;;;;;25.23;8.43;;;;;;;10.61;78.71;100929.95;1731851;81;21002;-59
2022/12/15 09:49:58;;;;;;;25.32;7.70;;;;;;;10.68;78.67;100911.14;1681912;83;21057;-58
2022/12/15 09:52:31;;;;;;;20.90;6.10;;;;;;;10.73;78.62;100904.98;1700601;83;21100;-58
2022/12/15 09:55:00;;;;;;;23.92;6.90;;;;;;;10.77;78.53;100907.07;1694410;83;21558;-58
2022/12/15 09:57:43;;;;;;;14.43;5.40;;;;;;;10.77;78.56;100915.74;1689281;83;21069;-58
2022/12/15 10:00:26;;;;;;;22.98;7.20;;;;;;;10.83;78.42;100903.04;1688544;83;21075;-57
2022/12/15 10:03:28;;;;;;;12.93;4.40;;;;;;;10.87;78.49;100895.14;1663334;83;21114;-57
2022/12/15 10:06:32;;;;;;;25.52;7.05;;;;;;;10.93;78.81;100909.77;1681715;84;21586;-57
2022/12/15 10:09:17;;;;;;;9.28;3.25;;;;;;;10.99;78.87;100889.67;1677986;84;21060;-58
2022/12/15 10:12:04;;;;;;;21.35;5.67;;;;;;;11.07;78.68;100883.86;1673184;83;21113;-57
2022/12/15 10:14:43;;;;;;;20.15;6.30;;;;;;;11.13;78.72;100878.95;1659804;84;21054;-57
2022/12/15 10:17:25;;;;;;;21.30;6.47;;;;;;;11.17;78.28;100880.16;1670848;84;21550;-58
2022/12/15 10:20:22;;;;;;;17.87;6.15;;;;;;;11.20;78.03;100869.69;1676209;84;21699;-57
2022/12/15 10:22:50;;;;;;;17.95;6.95;;;;;;;11.22;77.94;100861.39;1675867;83;21560;-57
2022/12/15 10:25:28;;;;;;;28.73;9.30;;;;;;;11.27;77.44;100866.03;1686229;83;21026;-57
2022/12/15 10:28:09;;;;;;;21.93;8.13;;;;;;;11.25;77.43;100846.98;1661046;85;21020;-57
2022/12/15 10:30:41;;;;;;;18.32;6.83;;;;;;;11.23;77.47;100853.14;1648264;85;21062;-57
2022/12/15 10:33:21;;;;;;;14.38;6.05;;;;;;;11.24;77.67;100845.28;1656159;85;21076;-58
2022/12/15 10:35:48;;;;;;;12.95;5.20;;;;;;;11.27;77.68;100851.70;1652558;85;21032;-57
2022/12/15 10:38:29;;;;;;;19.15;5.67;;;;;;;11.30;77.56;100852.95;1651923;85;21076;-57
2022/12/15 10:41:00;;;;;;;14.73;5.65;;;;;;;11.33;77.30;100847.66;1652874;85;21016;-56
2022/12/15 10:43:39;;;;;;;18.60;5.67;;;;;;;11.35;77.07;100839.36;1655634;85;21037;-57
2022/12/15 10:46:21;;;;;;;18.80;6.60;;;;;;;11.36;77.02;100835.88;1654324;85;21536;-56
2022/12/15 10:48:58;;;;;;;25.82;8.68;;;;;;;11.39;76.72;100841.03;1660585;85;21200;-56
2022/12/15 10:51:31;;;;;;;25.95;9.55;;;;;;;11.39;76.48;100842.33;1660779;85;21072;-56
2022/12/15 10:54:09;;;;;;;23.18;7.42;;;;;;;11.38;76.26;100838.00;1664461;84;21092;-56
2022/12/15 10:56:58;;;;;;;20.50;7.45;;;;;;;11.37;76.15;100847.99;1646609;86;21517;-56
2022/12/15 14:05:20;;;;;;;17.48;9.45;;;;;;;8.24;100.00;100975.60;1797039;78;27098;-58
2022/12/15 14:07:54;;;;;;;25.25;9.70;;;;;;;9.26;95.95;100973.23;1746131;80;21525;-57
2022/12/15 14:10:46;;;;;;;23.12;10.38;;;;;;;9.55;91.96;100977.61;1753455;80;21100;-57
2022/12/15 14:13:28;;;;;;;24.27;10.45;;;;;;;9.66;90.70;100969.23;1733419;81;21576;-57
2022/12/15 14:15:58;;;;;;;25.02;11.50;;;;;;;9.75;89.86;100971.24;1740917;81;21061;-57
2022/12/15 14:18:36;;;;;;;22.82;10.13;;;;;;;9.88;89.32;100973.66;1744770;80;21062;-57
2022/12/15 14:21:08;;;;;;;17.48;9.00;;;;;;;9.97;88.89;100985.22;1685543;83;21048;-57
2022/12/15 14:23:41;;;;;;;18.15;8.33;;;;;;;10.06;88.51;100996.75;1668636;84;21094;-57
2022/12/15 14:26:10;;;;;;;19.52;7.85;;;;;;;10.15;87.98;100996.66;1670710;84;21073;-57
2022/12/15 14:28:44;;;;;;;19.15;7.55;;;;;;;10.22;87.49;101009.52;1668055;84;21554;-57
2022/12/15 14:31:20;;;;;;;13.85;6.60;;;;;;;10.30;87.06;101006.82;1662364;84;21030;-57
2022/12/15 14:34:02;;;;;;;15.05;7.25;;;;;;;10.36;86.61;101014.52;1688516;84;21057;-57
2022/12/15 14:36:29;;;;;;;12.35;7.00;;;;;;;10.42;86.22;101023.08;1671473;83;21054;-57
2022/12/15 14:39:02;;;;;;;18.65;7.58;;;;;;;10.46;85.37;101027.34;1680098;83;21570;-57
2022/12/15 14:41:32;;;;;;;16.05;8.90;;;;;;;10.45;84.57;101018.25;1679326;84;21199;-57
2022/12/15 14:44:04;;;;;;;13.53;7.75;;;;;;;10.43;84.02;101029.98;1683345;84;21054;-58
2022/12/15 14:46:30;;;;;;;16.97;8.15;;;;;;;10.42;83.75;101027.42;1611867;88;21073;-57
2022/12/15 14:49:01;;;;;;;20.97;12.35;;;;;;;10.42;83.73;101027.42;1588200;89;21067;-57
2022/12/15 14:51:29;;;;;;;25.23;13.48;;;;;;;10.44;83.45;101032.16;1570917;91;21172;-58
2022/12/15 14:53:55;;;;;;;22.55;12.20;;;;;;;10.44;83.12;101043.86;1549545;92;21554;-57
2022/12/15 14:56:29;;;;;;;17.90;12.00;;;;;;;10.44;82.67;101044.73;1548761;93;21111;-57
2022/12/15 14:59:02;;;;;;;22.02;12.40;;;;;;;10.47;82.54;101054.20;1592585;89;21059;-57
2022/12/15 15:01:39;;;;;;;37.08;17.37;;;;;;;10.46;82.06;101059.87;1592602;89;21158;-58
2022/12/15 15:04:28;;;;;;;22.25;12.53;;;;;;;10.43;81.56;101071.61;1593723;89;21090;-57
2022/12/15 15:06:56;;;;;;;20.27;12.15;;;;;;;10.39;81.23;101074.28;1543378;92;21629;-57
2022/12/15 15:09:39;;;;;;;15.05;10.43;;;;;;;10.34;80.97;101073.51;1552064;92;21209;-57
2022/12/15 15:12:12;;;;;;;19.80;11.65;;;;;;;10.30;80.71;101072.70;1543203;92;21113;-57
2022/12/15 15:14:45;;;;;;;19.80;11.20;;;;;;;10.25;80.46;101089.24;1483016;95;21236;-57
2022/12/15 15:17:34;;;;;;;15.95;10.30;;;;;;;10.20;80.11;101107.97;1489451;95;21128;-58
2022/12/15 15:20:05;;;;;;;16.48;10.38;;;;;;;10.16;80.01;101110.20;1495486;95;21658;-57
2022/12/15 15:22:42;;;;;;;14.93;10.85;;;;;;;10.11;79.73;101117.20;1503648;94;21145;-57
2022/12/15 15:25:37;;;;;;;19.92;11.93;;;;;;;10.09;79.85;101129.33;1509447;95;21095;-58
2022/12/15 15:28:18;;;;;;;17.55;10.23;;;;;;;10.07;79.70;101128.48;1503973;94;21705;-58
2022/12/15 15:30:56;;;;;;;14.50;9.90;;;;;;;10.05;79.24;101135.45;1504305;95;21151;-57
2022/12/15 15:33:24;;;;;;;26.70;13.20;;;;;;;10.02;79.01;101141.97;1509560;95;21080;-57
2022/12/15 15:35:55;;;;;;;15.75;10.55;;;;;;;9.99;78.96;101143.33;1508360;95;21110;-57
2022/12/15 15:38:29;;;;;;;17.75;11.38;;;;;;;9.96;78.90;101148.55;1509475;95;21129;-57
2022/12/15 15:40:58;;;;;;;21.77;10.90;;;;;;;9.93;78.72;101142.11;1509755;94;21125;-57
2022/12/15 15:43:26;;;;;;;17.00;10.18;;;;;;;9.93;78.72;101143.41;1543419;91;21087;-57
2022/12/15 15:46:02;;;;;;;15.93;9.90;;;;;;;9.92;78.56;101150.77;1551855;91;21134;-57
2022/12/15 15:48:31;;;;;;;17.73;10.72;;;;;;;9.92;78.57;101162.47;1479015;95;21168;-57
2022/12/15 15:50:58;;;;;;;15.45;10.53;;;;;;;9.90;78.46;101166.83;1493010;92;21187;-58
2022/12/15 15:53:25;;;;;;;19.42;11.40;;;;;;;9.90;78.38;101181.12;1540677;91;21054;-57
2022/12/15 15:55:53;;;;;;;16.42;10.13;;;;;;;9.89;78.35;101183.33;1536427;92;21598;-57
2022/12/15 15:58:19;;;;;;;14.47;10.23;;;;;;;9.92;78.40;101193.66;1548558;92;21127;-58
2022/12/15 16:00:46;;;;;;;24.25;12.33;;;;;;;9.94;78.49;101199.70;1557784;91;21182;-57
2022/12/15 16:03:12;;;;;;;18.17;10.43;;;;;;;9.97;78.31;101210.95;1545550;92;21604;-57
2022/12/15 16:05:39;;;;;;;15.53;10.23;;;;;;;10.04;78.12;101222.11;1557982;91;21105;-57
2022/12/15 16:08:10;;;;;;;12.33;10.38;;;;;;;10.08;77.83;101231.59;1526499;92;21093;-57
2022/12/15 16:10:37;;;;;;;13.03;10.13;;;;;;;10.10;77.46;101232.03;1548233;91;21073;-57
2022/12/15 16:13:04;;;;;;;20.43;12.80;;;;;;;10.07;76.91;101245.48;1550324;91;21093;-57
2022/12/15 16:15:31;;;;;;;17.48;11.35;;;;;;;10.01;76.67;101240.36;1554282;92;21046;-57
2022/12/15 16:17:58;;;;;;;19.50;12.35;;;;;;;9.99;76.53;101242.12;1563245;90;21138;-57
2022/12/15 16:20:27;;;;;;;23.85;12.13;;;;;;;9.95;76.34;101246.50;1574905;90;21137;-57
2022/12/15 16:23:01;;;;;;;19.77;13.28;;;;;;;9.92;76.32;101257.35;1573254;90;21026;-57
2022/12/15 16:25:37;;;;;;;19.00;12.73;;;;;;;9.90;76.29;101266.91;1565962;90;21109;-58
2022/12/15 16:28:14;;;;;;;25.02;13.62;;;;;;;9.89;76.13;101274.30;1602629;89;21114;-59
2022/12/15 16:30:41;;;;;;;20.17;14.33;;;;;;;9.85;75.89;101270.84;1505017;95;21154;-57
2022/12/15 16:33:10;;;;;;;19.02;14.25;;;;;;;9.82;75.71;101283.89;1506521;95;21640;-57
2022/12/15 16:35:39;;;;;;;26.52;15.08;;;;;;;9.78;75.57;101291.30;1503112;95;21573;-58
2022/12/15 16:38:08;;;;;;;20.75;14.60;;;;;;;9.72;75.41;101301.33;1501774;95;21098;-57
2022/12/15 16:40:37;;;;;;;21.65;14.00;;;;;;;9.66;75.19;101314.38;1505938;94;22644;-57
2022/12/15 16:43:09;;;;;;;20.62;15.38;;;;;;;9.63;75.51;101321.31;1500248;95;21098;-58
2022/12/15 16:45:36;;;;;;;23.12;14.25;;;;;;;9.61;75.42;101327.83;1481170;94;21100;-59
2022/12/15 16:48:03;;;;;;;20.60;15.10;;;;;;;9.61;75.26;101319.17;1495620;95;21123;-58
2022/12/15 16:50:36;;;;;;;21.80;13.83;;;;;;;9.57;75.15;101330.03;1496150;95;21141;-57
2022/12/15 16:53:03;;;;;;;20.02;12.60;;;;;;;9.54;75.11;101339.14;1497616;94;21088;-57
2022/12/15 16:55:31;;;;;;;15.60;12.18;;;;;;;9.52;75.26;101351.28;1495012;95;21152;-57
2022/12/15 16:58:03;;;;;;;17.65;12.47;;;;;;;9.48;75.23;101353.48;1510493;94;21039;-58
2022/12/15 17:00:33;;;;;;;18.95;12.65;;;;;;;9.48;75.34;101361.27;1499029;93;21080;-57
2022/12/15 17:03:00;;;;;;;16.37;13.10;;;;;;;9.45;74.97;101365.20;1497580;95;21175;-57
2022/12/15 17:05:31;;;;;;;18.95;13.65;;;;;;;9.38;74.63;101359.62;1503085;95;21128;-58
2022/12/15 17:07:58;;;;;;;22.15;15.48;;;;;;;9.29;74.57;101362.30;1423528;101;21118;-58
2022/12/15 17:10:27;;;;;;;20.02;14.07;;;;;;;9.21;74.70;101369.25;1398196;102;21156;-58
2022/12/15 17:13:05;;;;;;;20.23;14.73;;;;;;;9.17;74.60;101369.30;1381091;103;21296;-59
2022/12/15 17:15:32;;;;;;;19.37;15.20;;;;;;;9.10;74.44;101369.77;1411752;101;21150;-58
2022/12/15 17:17:59;;;;;;;21.97;14.95;;;;;;;9.02;74.62;101375.45;1397732;102;21104;-58
2022/12/15 17:20:27;;;;;;;22.02;15.20;;;;;;;8.97;74.70;101371.57;1379521;104;21122;-58
2022/12/15 17:23:01;;;;;;;22.15;15.65;;;;;;;8.92;74.84;101364.69;1412313;101;21215;-58
2022/12/15 17:25:39;;;;;;;22.93;16.87;;;;;;;8.93;75.14;101361.21;1356174;105;21168;-57
2022/12/15 17:28:13;;;;;;;23.05;16.80;;;;;;;8.89;74.79;101372.05;1424894;99;21121;-58
2022/12/15 17:30:40;;;;;;;23.77;17.05;;;;;;;8.83;75.01;101376.41;1430213;100;21133;-58
2022/12/15 17:33:20;;;;;;;22.13;15.43;;;;;;;8.80;75.14;101368.62;1437627;99;21231;-58
2022/12/15 17:35:50;;;;;;;;;;;;;;;8.82;75.51;101372.09;1435461;99;21141;-58
2022/12/15 17:38:19;;;;;;;20.10;14.85;;;;;;;8.85;75.55;101390.23;1403324;101;20165;-58
2022/12/15 17:40:46;;;;;;;21.25;15.48;;;;;;;8.86;75.71;101391.97;1403576;102;21213;-58
2022/12/15 17:43:15;;;;;;;18.80;14.87;;;;;;;8.88;75.45;101394.13;1465150;96;21224;-58
2022/12/15 17:45:43;;;;;;;18.42;15.25;;;;;;;8.93;75.59;101398.84;1470451;96;21186;-58
2022/12/15 17:48:10;;;;;;;17.87;14.90;;;;;;;8.99;75.23;101410.49;1464417;97;21128;-58
2022/12/15 17:50:38;;;;;;;21.25;15.30;;;;;;;8.98;75.14;101419.16;1459131;97;21120;-58
2022/12/15 17:53:05;;;;;;;20.80;16.65;;;;;;;8.97;74.67;101422.61;1459691;97;21169;-58
2022/12/15 17:55:32;;;;;;;21.35;15.70;;;;;;;8.92;74.57;101423.92;1438824;98;21105;-58
2022/12/15 17:57:59;;;;;;;20.20;15.70;;;;;;;8.93;74.75;101422.20;1442912;98;21238;-58
2022/12/15 18:00:28;;;;;;;17.42;13.53;;;;;;;8.95;74.61;101420.46;1457667;98;21150;-57
2022/12/15 18:02:56;;;;;;;18.42;14.95;;;;;;;8.96;74.48;101420.45;1447628;98;21088;-58
2022/12/15 18:05:25;;;;;;;20.97;15.50;;;;;;;8.99;74.65;101429.53;1503709;93;21570;-58
2022/12/15 18:07:59;;;;;;;16.23;13.95;;;;;;;9.03;74.19;101431.67;1523726;92;21122;-58
2022/12/15 18:10:33;;;;;;;18.40;15.90;;;;;;;9.04;73.85;101430.81;1466907;96;21817;-58
2022/12/15 18:13:00;;;;;;;18.37;14.90;;;;;;;9.04;73.89;101438.60;1495414;94;21127;-59
2022/12/15 18:15:30;;;;;;;18.95;14.93;;;;;;;9.05;73.89;101453.29;1526816;93;21077;-58
2022/12/15 18:17:57;;;;;;;22.35;15.75;;;;;;;9.07;73.35;101469.72;1504689;93;21553;-58
2022/12/15 18:20:24;;;;;;;18.70;13.48;;;;;;;9.05;73.46;101473.22;1517839;93;21109;-58
2022/12/15 18:22:51;;;;;;;19.42;13.15;;;;;;;9.07;73.09;101467.13;1573393;90;21132;-58
2022/12/15 18:25:22;;;;;;;16.37;13.15;;;;;;;9.06;72.89;101463.25;1576438;90;21061;-58
2022/12/15 18:27:48;;;;;;;18.17;13.68;;;;;;;8.99;72.62;101474.08;1593591;89;21680;-58
2022/12/15 18:30:18;;;;;;;19.90;13.35;;;;;;;8.92;72.69;101486.67;1633777;87;21122;-58
2022/12/15 18:32:45;;;;;;;16.15;12.68;;;;;;;8.89;72.95;101504.84;1629705;87;21029;-58
2022/12/15 18:35:22;;;;;;;18.40;13.22;;;;;;;8.89;72.82;101498.34;1600689;89;21160;-58
2022/12/15 18:37:50;;;;;;;18.98;14.33;;;;;;;8.90;72.90;101499.63;1562880;90;21133;-58
2022/12/15 18:40:20;;;;;;;18.90;13.70;;;;;;;8.88;72.63;101497.94;1570562;90;21076;-58
2022/12/15 18:42:47;;;;;;;17.92;14.63;;;;;;;8.86;72.66;101482.80;1574477;90;21553;-58
2022/12/15 18:45:22;;;;;;;19.70;14.60;;;;;;;8.82;72.62;101481.09;1573038;90;21070;-58
2022/12/15 18:47:52;;;;;;;20.65;15.10;;;;;;;8.81;72.73;101500.11;1575266;89;21067;-58
2022/12/15 18:50:23;;;;;;;18.55;14.20;;;;;;;8.80;72.48;101525.61;1584149;89;21153;-58
2022/12/15 18:52:57;;;;;;;17.85;13.62;;;;;;;8.79;72.79;101540.77;1584532;89;21066;-58
2022/12/15 18:55:25;;;;;;;16.80;12.55;;;;;;;8.79;72.98;101539.05;1487374;94;22643;-58
2022/12/15 18:57:52;;;;;;;20.75;14.55;;;;;;;8.81;72.55;101541.63;1499669;95;21154;-58
2022/12/15 19:00:29;;;;;;;16.80;13.53;;;;;;;8.74;72.31;101553.74;1486480;94;21592;-58
2022/12/15 19:02:58;;;;;;;17.62;12.93;;;;;;;8.70;72.50;101556.34;1478529;95;21147;-58
2022/12/15 19:05:27;;;;;;;16.93;13.90;;;;;;;8.66;72.75;101573.65;1496814;94;21138;-58
2022/12/15 19:08:08;;;;;;;18.10;13.50;;;;;;;8.62;72.73;101565.86;1505365;93;21098;-58
2022/12/15 19:10:33;;;;;;;16.85;12.33;;;;;;;8.58;72.67;101564.14;1502875;93;21166;-58
2022/12/15 19:13:00;;;;;;;16.82;13.10;;;;;;;8.54;72.74;101573.66;1521584;92;21591;-58
2022/12/15 19:15:26;;;;;;;16.62;12.82;;;;;;;8.52;72.63;101574.52;1530171;91;21098;-58
2022/12/15 19:23:23;;;;;;;16.70;12.43;;;;;;;8.44;72.99;101592.69;1535739;92;22751;-58
2022/12/15 19:25:50;;;;;;;16.17;12.47;;;;;;;8.40;73.02;101595.27;1545984;91;21081;-58
2022/12/15 19:28:20;;;;;;;14.65;11.20;;;;;;;8.39;72.84;101598.75;1542256;91;21504;-58
2022/12/15 19:30:47;;;;;;;14.73;11.78;;;;;;;8.38;73.07;101602.19;1544259;92;21646;-58
2022/12/15 19:33:14;;;;;;;15.03;10.78;;;;;;;8.38;73.11;101609.97;1531923;92;21605;-58
2022/12/15 19:35:44;;;;;;;13.70;10.40;;;;;;;8.37;72.85;101616.00;1531564;91;21150;-58
2022/12/15 19:38:27;;;;;;;12.98;10.48;;;;;;;8.34;72.98;101616.89;1543259;91;21113;-58
2022/12/15 19:40:54;;;;;;;11.80;10.25;;;;;;;8.36;73.02;101612.99;1526443;93;21226;-58
2022/12/15 19:43:22;;;;;;;12.98;9.73;;;;;;;8.39;72.97;101611.71;1527146;92;21619;-58
2022/12/15 19:45:50;;;;;;;12.78;10.32;;;;;;;8.39;72.93;101611.71;1525205;92;21098;-58
2022/12/15 19:48:17;;;;;;;12.53;10.38;;;;;;;8.42;72.97;101609.10;1528009;92;21555;-59
2022/12/15 19:50:43;;;;;;;11.78;9.88;;;;;;;8.46;72.76;101613.42;1531290;92;21116;-58
2022/12/15 19:53:27;;;;;;;12.55;10.65;;;;;;;8.46;72.58;101608.23;1697895;82;21075;-58
2022/12/15 19:55:57;;;;;;;12.73;9.95;;;;;;;8.45;72.66;101613.02;1693934;83;21295;-58
2022/12/15 19:58:27;;;;;;;14.30;10.72;;;;;;;8.46;72.57;101611.70;1698003;83;21007;-58
2022/12/15 20:00:58;;;;;;;13.78;10.05;;;;;;;8.46;72.41;101609.53;1655311;84;21022;-58
2022/12/15 20:03:25;;;;;;;13.90;11.00;;;;;;;8.45;72.39;101613.02;1644876;87;21070;-58
2022/12/15 20:05:52;;;;;;;13.62;11.45;;;;;;;8.39;72.19;101606.06;1625636;87;21085;-58
2022/12/15 20:08:29;;;;;;;15.30;10.65;;;;;;;8.34;72.48;101603.05;1662273;84;21038;-58
2022/12/15 20:10:56;;;;;;;15.83;11.35;;;;;;;8.30;72.32;101603.91;1582697;89;21126;-58
2022/12/15 20:13:25;;;;;;;14.33;11.22;;;;;;;8.18;72.37;101610.77;1588350;90;21074;-58
2022/12/15 20:15:53;;;;;;;13.72;10.82;;;;;;;8.14;72.86;101621.99;1593958;88;21134;-58
2022/12/15 20:18:21;;;;;;;13.88;10.75;;;;;;;8.13;72.99;101639.72;1601021;88;21091;-59
2022/12/15 20:20:48;;;;;;;11.05;9.73;;;;;;;8.11;73.07;101650.52;1647569;85;21062;-58
2022/12/15 20:25:52;;;;;;;13.05;10.50;;;;;;;8.11;73.04;101662.61;1606922;88;21046;-58
2022/12/15 20:28:23;;;;;;;13.60;10.25;;;;;;;8.12;73.36;101672.97;1604660;88;21566;-58
2022/12/15 20:30:50;;;;;;;11.90;9.95;;;;;;;8.15;73.30;101675.59;1562999;90;21055;-58
2022/12/15 20:33:18;;;;;;;12.25;9.40;;;;;;;8.17;73.35;101672.56;1563010;90;21087;-58
2022/12/15 20:35:47;;;;;;;13.10;10.28;;;;;;;8.21;73.19;101673.01;1566963;90;21051;-58
2022/12/15 20:38:26;;;;;;;13.28;10.80;;;;;;;8.23;72.84;101681.66;1535096;92;21181;-58
2022/12/15 20:40:53;;;;;;;15.30;11.12;;;;;;;8.22;72.86;101677.31;1530470;92;21073;-58
2022/12/15 20:43:21;;;;;;;13.08;10.45;;;;;;;8.22;72.89;101673.42;1533101;92;21143;-58
2022/12/15 20:45:52;;;;;;;15.95;11.93;;;;;;;8.21;72.82;101660.05;1516564;92;21137;-58
2022/12/15 20:48:19;;;;;;;14.63;11.73;;;;;;;8.18;72.87;101654.84;1517357;93;21179;-59
2022/12/15 20:50:47;;;;;;;17.65;12.28;;;;;;;8.15;72.73;101628.92;1532416;92;21095;-58
2022/12/15 20:53:18;;;;;;;12.65;9.95;;;;;;;8.11;72.73;101611.64;1541520;92;21116;-58
2022/12/15 20:55:45;;;;;;;14.20;10.08;;;;;;;8.10;73.01;101596.92;1459048;95;21138;-58
2022/12/15 20:58:12;;;;;;;16.12;11.12;;;;;;;8.09;72.91;101586.56;1518604;93;21105;-58
2022/12/15 21:00:39;;;;;;;13.85;11.00;;;;;;;8.04;73.12;101595.63;1518868;93;21090;-58
2022/12/15 21:03:24;;;;;;;13.95;9.98;;;;;;;8.06;73.39;101623.70;1512289;93;21116;-58
2022/12/15 21:05:52;;;;;;;12.95;10.68;;;;;;;8.10;73.48;101638.41;1423172;99;21184;-58
2022/12/15 21:08:30;;;;;;;12.45;10.28;;;;;;;8.16;73.32;101647.95;1391389;101;21130;-58
2022/12/15 21:11:08;;;;;;;13.15;10.15;;;;;;;8.17;73.04;101651.83;1373879;103;21669;-58